PWSweather.com
Personal Weather Stations
Station Observations
AS787
Cloppers Mill East, Germantown, MD 20874-2154

Cloppers Mill EastGermantown, MD 20874-2154

Lat: 39.1522, Lon: -77.2679

Elevation: 318

Station Type: 1-Wire

http://www.cloppermillweather.org/

Latest ConditionsUpdated 3:44:00 PM EDT Monday, Sep 24, 2018
Currently Today's Max Today's Min Today's Average
Temperature 64.2°F17.9°C 64.5°F18.1°C 60.1°F15.6°C 62.0°F16.7°C
Dew Point 62.7°F17.1°C 63.2°F17.3°C 59.5°F15.3°C 61.3°F16.3°C
Winds Calm Calm 0.2 mph -0.3 kmh - - 0.0 mph 0.0 kmh
Wind Gusts -- 3.0 mph4.8 kmh - -
Humidity 95% 98% 94% 97%
Pressure 30.32 in1026.8 mb 30.34 in1027.4 mb 30.24 in1024.0 mb -
Hour Temp Dew Point Humidity Winds Wind Gusts Pressure Precip Precip Rate Daily Precip Total
03:44 PM 64.2°F17.9°C 62.7°F17.1°C 95% Calm Calm -- 30.32 in1026.8 mb 0.00 in0.0 mm 0.00 in0.0 mm 0.03 in0.8 mm
03:14 PM 64.2°F17.9°C 62.6°F17.0°C 95% 0.2 mph SW0.3 kmh SW 3.0 mph4.8 kmh 30.32 in1026.8 mb 0.00 in0.0 mm 0.00 in0.0 mm 0.03 in0.8 mm
02:44 PM 64.5°F18.1°C 62.8°F17.1°C 94% Calm Calm 2.0 mph3.2 kmh 30.32 in1026.8 mb 0.00 in0.0 mm 0.00 in0.0 mm 0.03 in0.8 mm
02:14 PM 64.5°F18.1°C 62.8°F17.1°C 94% Calm Calm 3.0 mph4.8 kmh 30.33 in1027.1 mb 0.00 in0.0 mm 0.00 in0.0 mm 0.03 in0.8 mm
01:44 PM 64.3°F17.9°C 63.2°F17.3°C 96% Calm Calm 2.0 mph3.2 kmh 30.34 in1027.4 mb 0.00 in0.0 mm 0.00 in0.0 mm 0.03 in0.8 mm
01:14 PM 63.9°F17.7°C 63.0°F17.2°C 97% Calm Calm -- 30.34 in1027.4 mb 0.00 in0.0 mm 0.00 in0.0 mm 0.03 in0.8 mm
12:44 PM 63.6°F17.6°C 63.0°F17.2°C 98% Calm Calm -- 30.34 in1027.4 mb 0.00 in0.0 mm 0.00 in0.0 mm 0.03 in0.8 mm
11:44 AM 62.6°F17.0°C 62.0°F16.7°C 98% Calm Calm -- 30.34 in1027.4 mb 0.00 in0.0 mm 0.00 in0.0 mm 0.03 in0.8 mm
11:14 AM 62.5°F16.9°C 61.9°F16.6°C 98% Calm Calm -- 30.34 in1027.4 mb 0.00 in0.0 mm 0.00 in0.0 mm 0.03 in0.8 mm
10:44 AM 62.4°F16.9°C 61.8°F16.6°C 98% Calm Calm -- 30.34 in1027.4 mb 0.00 in0.0 mm 0.00 in0.0 mm 0.03 in0.8 mm
10:14 AM 62.5°F16.9°C 61.9°F16.6°C 98% Calm Calm -- 30.34 in1027.4 mb 0.00 in0.0 mm 0.00 in0.0 mm 0.03 in0.8 mm
09:44 AM 62.3°F16.8°C 61.8°F16.6°C 98% Calm Calm -- 30.33 in1027.1 mb 0.00 in0.0 mm 0.00 in0.0 mm 0.03 in0.8 mm
09:14 AM 62.2°F16.8°C 61.6°F16.4°C 98% Calm Calm -- 30.33 in1027.1 mb 0.00 in0.0 mm 0.00 in0.0 mm 0.03 in0.8 mm
08:44 AM 62.0°F16.7°C 61.4°F16.3°C 98% Calm Calm -- 30.32 in1026.8 mb 0.00 in0.0 mm 0.00 in0.0 mm 0.03 in0.8 mm
08:14 AM 61.7°F16.5°C 61.2°F16.2°C 98% Calm Calm -- 30.31 in1026.4 mb 0.00 in0.0 mm 0.00 in0.0 mm 0.03 in0.8 mm
07:44 AM 61.7°F16.5°C 61.2°F16.2°C 98% Calm Calm -- 30.30 in1026.1 mb 0.01 in0.3 mm 0.00 in0.0 mm 0.03 in0.8 mm
07:14 AM 61.6°F16.4°C 61.0°F16.1°C 98% Calm Calm -- 30.30 in1026.1 mb 0.01 in0.3 mm 0.02 in0.5 mm 0.03 in0.8 mm
06:44 AM 61.4°F16.3°C 60.9°F16.1°C 98% Calm Calm -- 30.29 in1025.7 mb 0.00 in0.0 mm 0.00 in0.0 mm 0.02 in0.5 mm
06:14 AM 61.2°F16.2°C 60.6°F15.9°C 98% Calm Calm -- 30.28 in1025.4 mb 0.00 in0.0 mm 0.00 in0.0 mm 0.02 in0.5 mm
05:44 AM 60.9°F16.1°C 60.3°F15.7°C 98% Calm Calm -- 30.26 in1024.7 mb 0.00 in0.0 mm 0.00 in0.0 mm 0.02 in0.5 mm
05:14 AM 60.7°F15.9°C 60.1°F15.6°C 98% Calm Calm -- 30.25 in1024.4 mb 0.00 in0.0 mm 0.00 in0.0 mm 0.02 in0.5 mm
04:44 AM 60.4°F15.8°C 59.8°F15.4°C 98% Calm Calm -- 30.25 in1024.4 mb 0.00 in0.0 mm 0.00 in0.0 mm 0.02 in0.5 mm
04:14 AM 60.1°F15.6°C 59.5°F15.3°C 98% Calm Calm -- 30.24 in1024.0 mb 0.00 in0.0 mm 0.00 in0.0 mm 0.02 in0.5 mm
03:44 AM 60.1°F15.6°C 59.5°F15.3°C 98% Calm Calm -- 30.24 in1024.0 mb 0.00 in0.0 mm 0.00 in0.0 mm 0.02 in0.5 mm
03:14 AM 60.5°F15.8°C 59.9°F15.5°C 98% Calm Calm -- 30.24 in1024.0 mb 0.00 in0.0 mm 0.00 in0.0 mm 0.02 in0.5 mm
02:44 AM 60.7°F15.9°C 60.2°F15.7°C 98% Calm Calm -- 30.24 in1024.0 mb 0.01 in0.3 mm 0.00 in0.0 mm 0.02 in0.5 mm
02:14 AM 60.9°F16.1°C 60.3°F15.7°C 98% Calm Calm -- 30.24 in1024.0 mb 0.01 in0.3 mm 0.02 in0.5 mm 0.02 in0.5 mm
01:44 AM 61.1°F16.2°C 60.5°F15.8°C 98% Calm Calm -- 30.24 in1024.0 mb 0.00 in0.0 mm 0.00 in0.0 mm 0.01 in0.3 mm
01:14 AM 61.0°F16.1°C 60.4°F15.8°C 98% Calm Calm -- 30.24 in1024.0 mb 0.00 in0.0 mm 0.00 in0.0 mm 0.01 in0.3 mm
12:44 AM 61.1°F16.2°C 60.5°F15.8°C 98% Calm Calm -- 30.25 in1024.4 mb 0.01 in0.3 mm 0.02 in0.5 mm 0.01 in0.3 mm
12:14 AM 61.1°F16.2°C 60.5°F15.8°C 98% Calm Calm -- 30.25 in1024.4 mb 0.00 in0.0 mm 0.00 in0.0 mm 0.00 in0.0 mm